2°C Temp
-5°C Dewpoint
60% Humidity
Temperature
11 KM/H
7 MPH
6 KTS
50°
North East

Wind Speed
Clear
Conditions
Pressure 1017.92 (hPa) - 30.06 (in)
Visibility 6.2 (mi) - 10.0 (km)

Current Conditions
EHRD
Location Rotterdam 6km (3.2mi)
Metar :EHRD 201255Z AUTO 05006KT 9999 NCD 02/M05 Q1018 NOSIG
Sun 20th January 13:55 pm

Airport
  Metar Aviation API Data Provided by https://www.checkwx.com/ CSS/SVG/PHP scripts by weather34.com © 2015-2019